Time;durP1;ratioP1;P1;durP2;ratioP2;P2;SDS_P1;SDS_P2;PMS_P1;PMS_P2;Temp;Humidity;BMP_temperature;BMP_pressure;BME280_temperature;BME280_humidity;BME280_pressure;Samples;Min_cycle;Max_cycle;Signal;HPM_P1;HPM_P2
2023/04/08 00:01:38;;;;;;;;;;;;;;;;;;5134874;27;19907;-68
2023/04/08 00:04:04;;;;;;;;;;;;;;;;;;5135226;27;20375;-68
2023/04/08 00:06:30;;;;;;;;;;;;;;;;;;5135755;27;20302;-68
2023/04/08 00:08:56;;;;;;;;;;;;;;;;;;5134408;27;20010;-68
2023/04/08 00:11:22;;;;;;;;;;;;;;;;;;5135241;27;20002;-68
2023/04/08 00:13:48;;;;;;;;;;;;;;;;;;5135002;27;19933;-68
2023/04/08 00:16:14;;;;;;;;;;;;;;;;;;5134299;27;20342;-68
2023/04/08 00:18:41;;;;;;;;;;;;;;;;;;5135262;27;19993;-67
2023/04/08 00:21:07;;;;;;;;;;;;;;;;;;5116796;27;19964;-68
2023/04/08 00:23:33;;;;;;;;;;;;;;;;;;5115589;27;19915;-67
2023/04/08 00:25:59;;;;;;;;;;;;;;;;;;5135205;27;19907;-67
2023/04/08 00:28:25;;;;;;;;;;;;;;;;;;5134705;27;19908;-67
2023/04/08 00:30:51;;;;;;;;;;;;;;;;;;5115884;27;19913;-68
2023/04/08 00:33:17;;;;;;;;;;;;;;;;;;5134955;27;19951;-68
2023/04/08 00:35:43;;;;;;;;;;;;;;;;;;5134614;27;19907;-67
2023/04/08 00:38:09;;;;;;;;;;;;;;;;;;5134318;27;19915;-67
2023/04/08 00:40:35;;;;;;;;;;;;;;;;;;5134862;27;19911;-68
2023/04/08 00:43:01;;;;;;;;;;;;;;;;;;5134235;27;19918;-68
2023/04/08 00:45:27;;;;;;;;;;;;;;;;;;5134315;27;19914;-67
2023/04/08 00:47:53;;;;;;;;;;;;;;;;;;5134649;27;19914;-68
2023/04/08 00:50:19;;;;;;;;;;;;;;;;;;5115738;27;19943;-68
2023/04/08 00:52:45;;;;;;;;;;;;;;;;;;5134659;27;19912;-67
2023/04/08 00:55:11;;;;;;;;;;;;;;;;;;5115771;27;19908;-67
2023/04/08 00:57:37;;;;;;;;;;;;;;;;;;5134083;27;19943;-67
2023/04/08 01:00:04;;;;;;;;;;;;;;;;;;5134510;27;19915;-67
2023/04/08 01:02:30;;;;;;;;;;;;;;;;;;5115769;28;20420;-67
2023/04/08 01:04:56;;;;;;;;;;;;;;;;;;5133742;28;19923;-67
2023/04/08 01:07:22;;;;;;;;;;;;;;;;;;5116147;28;19911;-67
2023/04/08 01:09:48;;;;;;;;;;;;;;;;;;5133956;28;19918;-67
2023/04/08 01:12:14;;;;;;;;;;;;;;;;;;5134011;28;19911;-68
2023/04/08 01:14:40;;;;;;;;;;;;;;;;;;5134622;28;20003;-67
2023/04/08 01:17:06;;;;;;;;;;;;;;;;;;5134058;28;19911;-68
2023/04/08 01:19:32;;;;;;;;;;;;;;;;;;5133788;28;19911;-67
2023/04/08 01:21:58;;;;;;;;;;;;;;;;;;5134711;28;19908;-68
2023/04/08 01:24:24;;;;;;;;;;;;;;;;;;5133809;27;20022;-67
2023/04/08 01:26:49;;;;;;;;;;;;;;;;;;5137919;27;19961;-67
2023/04/08 01:29:15;;;;;;;;;;;;;;;;;;5138489;27;19912;-67
2023/04/08 01:31:41;;;;;;;;;;;;;;;;;;5137256;27;19911;-67
2023/04/08 01:34:07;;;;;;;;;;;;;;;;;;5138500;27;19908;-67
2023/04/08 01:36:34;;;;;;;;;;;;;;;;;;5120207;27;19930;-67
2023/04/08 01:39:00;;;;;;;;;;;;;;;;;;5137312;27;20320;-67
2023/04/08 01:41:26;;;;;;;;;;;;;;;;;;5119761;27;19908;-67
2023/04/08 01:43:52;;;;;;;;;;;;;;;;;;5138136;27;19943;-67
2023/04/08 01:46:18;;;;;;;;;;;;;;;;;;5137315;27;19907;-67
2023/04/08 01:48:44;;;;;;;;;;;;;;;;;;5138273;27;20002;-67
2023/04/08 01:51:10;;;;;;;;;;;;;;;;;;5138021;27;19951;-67
2023/04/08 01:53:36;;;;;;;;;;;;;;;;;;5137094;27;19950;-67
2023/04/08 01:56:02;;;;;;;;;;;;;;;;;;5138108;27;19916;-67
2023/04/08 01:58:28;;;;;;;;;;;;;;;;;;5137941;27;19908;-67
2023/04/08 02:00:54;;;;;;;;;;;;;;;;;;5137061;27;19907;-67
2023/04/08 02:03:20;;;;;;;;;;;;;;;;;;5137733;27;19920;-67
2023/04/08 02:05:46;;;;;;;;;;;;;;;;;;5138041;27;19907;-67
2023/04/08 02:08:12;;;;;;;;;;;;;;;;;;5118500;27;19915;-67
2023/04/08 02:10:38;;;;;;;;;;;;;;;;;;5137666;27;19907;-67
2023/04/08 02:13:04;;;;;;;;;;;;;;;;;;5137490;27;19915;-67
2023/04/08 02:15:30;;;;;;;;;;;;;;;;;;5136747;27;19908;-67
2023/04/08 02:17:56;;;;;;;;;;;;;;;;;;5137632;27;19959;-67
2023/04/08 02:20:22;;;;;;;;;;;;;;;;;;5137378;27;19914;-67
2023/04/08 02:22:49;;;;;;;;;;;;;;;;;;5136667;27;19908;-67
2023/04/08 02:25:15;;;;;;;;;;;;;;;;;;5137327;27;20022;-67
2023/04/08 02:27:41;;;;;;;;;;;;;;;;;;5137156;27;19907;-67
2023/04/08 02:30:07;;;;;;;;;;;;;;;;;;5136468;27;19915;-67
2023/04/08 02:32:33;;;;;;;;;;;;;;;;;;5137449;27;19912;-67
2023/04/08 02:34:59;;;;;;;;;;;;;;;;;;5136651;27;19907;-67
2023/04/08 02:37:25;;;;;;;;;;;;;;;;;;5136285;27;19918;-67
2023/04/08 02:39:51;;;;;;;;;;;;;;;;;;5118846;27;19908;-69
2023/04/08 02:42:17;;;;;;;;;;;;;;;;;;5136556;27;19908;-67
2023/04/08 02:44:43;;;;;;;;;;;;;;;;;;5136744;27;19998;-68
2023/04/08 02:47:09;;;;;;;;;;;;;;;;;;5136975;27;19915;-67
2023/04/08 02:49:35;;;;;;;;;;;;;;;;;;5136361;27;20434;-67
2023/04/08 02:52:01;;;;;;;;;;;;;;;;;;5136475;27;19907;-67
2023/04/08 02:54:26;;;;;;;;;;;;;;;;;;5136827;27;20019;-67
2023/04/08 02:56:52;;;;;;;;;;;;;;;;;;5136370;27;20005;-67
2023/04/08 02:59:18;;;;;;;;;;;;;;;;;;5136203;27;19915;-67
2023/04/08 03:01:44;;;;;;;;;;;;;;;;;;5118215;27;19908;-67
2023/04/08 03:04:10;;;;;;;;;;;;;;;;;;5117526;27;19969;-67
2023/04/08 03:06:36;;;;;;;;;;;;;;;;;;5136366;27;19942;-67
2023/04/08 03:09:02;;;;;;;;;;;;;;;;;;5136385;27;19914;-67
2023/04/08 03:11:28;;;;;;;;;;;;;;;;;;5136043;27;19907;-67
2023/04/08 03:13:54;;;;;;;;;;;;;;;;;;5136136;27;20045;-67
2023/04/08 03:16:20;;;;;;;;;;;;;;;;;;5136304;27;19907;-67
2023/04/08 03:18:46;;;;;;;;;;;;;;;;;;5136165;27;19911;-68
2023/04/08 03:21:12;;;;;;;;;;;;;;;;;;5136066;27;19912;-67
2023/04/08 03:23:38;;;;;;;;;;;;;;;;;;5136003;27;20014;-67
2023/04/08 03:26:04;;;;;;;;;;;;;;;;;;5135943;27;19908;-68
2023/04/08 03:28:30;;;;;;;;;;;;;;;;;;5135687;27;19918;-68
2023/04/08 03:30:56;;;;;;;;;;;;;;;;;;5117607;27;19911;-68
2023/04/08 03:33:21;;;;;;;;;;;;;;;;;;5135704;27;20010;-68
2023/04/08 03:35:47;;;;;;;;;;;;;;;;;;5135579;27;19957;-68
2023/04/08 03:38:13;;;;;;;;;;;;;;;;;;5135634;27;20011;-67
2023/04/08 03:40:39;;;;;;;;;;;;;;;;;;5135994;27;19908;-67
2023/04/08 03:43:07;;;;;;;;;;;;;;;;;;5135760;27;20342;-67
2023/04/08 03:45:33;;;;;;;;;;;;;;;;;;5135343;27;20394;-67
2023/04/08 03:47:59;;;;;;;;;;;;;;;;;;5116653;27;19956;-67
2023/04/08 03:50:25;;;;;;;;;;;;;;;;;;5135501;27;20299;-67
2023/04/08 03:52:51;;;;;;;;;;;;;;;;;;5134951;27;20274;-67
2023/04/08 03:55:17;;;;;;;;;;;;;;;;;;5135627;27;20396;-67
2023/04/08 03:57:43;;;;;;;;;;;;;;;;;;5135512;27;19930;-67
2023/04/08 04:00:09;;;;;;;;;;;;;;;;;;5134749;27;19912;-67
2023/04/08 04:02:35;;;;;;;;;;;;;;;;;;5135691;27;19908;-67
2023/04/08 04:05:01;;;;;;;;;;;;;;;;;;5135036;27;20314;-67
2023/04/08 04:07:27;;;;;;;;;;;;;;;;;;5134575;27;19952;-67
2023/04/08 04:09:55;;;;;;;;;;;;;;;;;;5135423;27;19915;-68
2023/04/08 04:12:21;;;;;;;;;;;;;;;;;;5117083;27;20379;-67
2023/04/08 04:14:46;;;;;;;;;;;;;;;;;;5134610;27;19907;-67
2023/04/08 04:17:12;;;;;;;;;;;;;;;;;;5135389;27;19950;-67
2023/04/08 04:19:38;;;;;;;;;;;;;;;;;;5134933;27;19908;-67
2023/04/08 04:22:04;;;;;;;;;;;;;;;;;;5134419;27;19915;-67
2023/04/08 04:24:30;;;;;;;;;;;;;;;;;;5116641;27;19923;-67
2023/04/08 04:26:56;;;;;;;;;;;;;;;;;;5116657;27;19907;-68
2023/04/08 04:29:22;;;;;;;;;;;;;;;;;;5115778;27;19988;-68
2023/04/08 04:31:48;;;;;;;;;;;;;;;;;;5134812;27;19914;-68
2023/04/08 04:34:14;;;;;;;;;;;;;;;;;;5135289;27;19907;-68
2023/04/08 04:36:40;;;;;;;;;;;;;;;;;;5134183;27;19961;-68
2023/04/08 04:39:06;;;;;;;;;;;;;;;;;;5134820;27;19919;-68
2023/04/08 04:41:34;;;;;;;;;;;;;;;;;;5134540;27;19912;-68
2023/04/08 04:44:00;;;;;;;;;;;;;;;;;;5115901;27;19911;-68
2023/04/08 04:46:26;;;;;;;;;;;;;;;;;;5134605;27;19911;-68
2023/04/08 04:48:52;;;;;;;;;;;;;;;;;;5134505;27;19911;-68
2023/04/08 04:51:18;;;;;;;;;;;;;;;;;;5134162;27;19974;-68
2023/04/08 04:53:44;;;;;;;;;;;;;;;;;;5134536;27;19907;-68
2023/04/08 04:56:10;;;;;;;;;;;;;;;;;;5134313;27;19907;-67
2023/04/08 04:58:36;;;;;;;;;;;;;;;;;;5115772;27;20010;-68
2023/04/08 05:01:02;;;;;;;;;;;;;;;;;;5134457;27;19907;-67
2023/04/08 05:03:27;;;;;;;;;;;;;;;;;;5133964;27;19976;-68
2023/04/08 05:05:53;;;;;;;;;;;;;;;;;;5115722;28;19907;-68
2023/04/08 05:08:20;;;;;;;;;;;;;;;;;;5134456;28;19908;-68
2023/04/08 05:10:45;;;;;;;;;;;;;;;;;;5134071;28;19918;-68
2023/04/08 05:13:11;;;;;;;;;;;;;;;;;;5115572;28;19907;-67
2023/04/08 05:15:37;;;;;;;;;;;;;;;;;;5134467;28;19914;-67
2023/04/08 05:18:03;;;;;;;;;;;;;;;;;;5134254;28;20011;-68
2023/04/08 05:20:29;;;;;;;;;;;;;;;;;;5133985;28;19908;-68
2023/04/08 05:22:55;;;;;;;;;;;;;;;;;;5134548;28;20378;-68
2023/04/08 05:25:21;;;;;;;;;;;;;;;;;;5133988;28;19960;-69
2023/04/08 05:27:47;;;;;;;;;;;;;;;;;;5133701;28;19912;-67
2023/04/08 05:30:13;;;;;;;;;;;;;;;;;;5134350;28;19953;-67
2023/04/08 05:32:39;;;;;;;;;;;;;;;;;;5134076;28;19908;-68
2023/04/08 05:35:05;;;;;;;;;;;;;;;;;;5115211;28;19934;-67
2023/04/08 05:37:31;;;;;;;;;;;;;;;;;;5134343;28;19912;-67
2023/04/08 05:39:57;;;;;;;;;;;;;;;;;;5133940;28;19914;-68
2023/04/08 05:42:23;;;;;;;;;;;;;;;;;;5133538;28;19908;-68
2023/04/08 05:44:49;;;;;;;;;;;;;;;;;;5133814;28;19919;-67
2023/04/08 05:47:15;;;;;;;;;;;;;;;;;;5134143;28;19907;-68
2023/04/08 05:49:41;;;;;;;;;;;;;;;;;;5115027;28;19908;-68
2023/04/08 05:52:07;;;;;;;;;;;;;;;;;;5133685;28;19907;-67
2023/04/08 05:54:32;;;;;;;;;;;;;;;;;;5134245;28;20007;-69
2023/04/08 05:56:58;;;;;;;;;;;;;;;;;;5115010;28;19914;-67
2023/04/08 05:59:24;;;;;;;;;;;;;;;;;;5133623;28;19907;-68
2023/04/08 06:01:50;;;;;;;;;;;;;;;;;;5134088;28;20363;-68
2023/04/08 06:04:16;;;;;;;;;;;;;;;;;;5133216;28;19926;-68
2023/04/08 06:06:42;;;;;;;;;;;;;;;;;;5133670;28;19908;-68
2023/04/08 06:09:11;;;;;;;;;;;;;;;;;;5133592;28;19914;-68
2023/04/08 06:11:37;;;;;;;;;;;;;;;;;;5135134;27;20309;-70
2023/04/08 06:14:03;;;;;;;;;;;;;;;;;;5137529;27;19908;-68
2023/04/08 06:16:29;;;;;;;;;;;;;;;;;;5137551;27;20291;-68
2023/04/08 06:18:55;;;;;;;;;;;;;;;;;;5136957;27;19908;-69
2023/04/08 06:21:21;;;;;;;;;;;;;;;;;;5137130;27;20055;-68
2023/04/08 06:23:47;;;;;;;;;;;;;;;;;;5137193;27;19911;-68
2023/04/08 06:26:13;;;;;;;;;;;;;;;;;;5137050;27;20295;-68
2023/04/08 06:28:39;;;;;;;;;;;;;;;;;;5137075;27;20006;-69
2023/04/08 06:31:05;;;;;;;;;;;;;;;;;;5136889;27;19908;-69
2023/04/08 06:33:31;;;;;;;;;;;;;;;;;;5136773;27;19915;-68
2023/04/08 06:35:57;;;;;;;;;;;;;;;;;;5137017;27;19930;-68
2023/04/08 06:38:23;;;;;;;;;;;;;;;;;;5118513;27;19908;-67
2023/04/08 06:40:49;;;;;;;;;;;;;;;;;;5136572;27;19908;-67
2023/04/08 06:43:15;;;;;;;;;;;;;;;;;;5136699;27;19929;-67
2023/04/08 06:45:42;;;;;;;;;;;;;;;;;;5136947;27;19963;-68
2023/04/08 06:48:08;;;;;;;;;;;;;;;;;;5136245;27;19962;-68
2023/04/08 06:50:34;;;;;;;;;;;;;;;;;;5135121;27;19907;-69
2023/04/08 06:53:00;;;;;;;;;;;;;;;;;;5116724;27;19908;-67
2023/04/08 06:55:26;;;;;;;;;;;;;;;;;;5134777;27;19971;-68
2023/04/08 06:57:52;;;;;;;;;;;;;;;;;;5135129;27;19918;-68
2023/04/08 07:00:18;;;;;;;;;;;;;;;;;;5135132;27;19907;-68
2023/04/08 07:02:43;;;;;;;;;;;;;;;;;;5135279;27;19907;-67
2023/04/08 07:05:10;;;;;;;;;;;;;;;;;;5136815;27;20382;-68
2023/04/08 07:07:36;;;;;;;;;;;;;;;;;;5136999;27;20279;-68
2023/04/08 07:10:02;;;;;;;;;;;;;;;;;;5135708;27;20359;-68
2023/04/08 07:12:28;;;;;;;;;;;;;;;;;;5135033;27;19968;-69
2023/04/08 07:14:54;;;;;;;;;;;;;;;;;;5135153;27;19908;-68
2023/04/08 07:17:20;;;;;;;;;;;;;;;;;;5134958;27;19999;-68
2023/04/08 07:19:46;;;;;;;;;;;;;;;;;;5136523;27;19911;-68
2023/04/08 07:22:12;;;;;;;;;;;;;;;;;;5136296;27;19911;-68
2023/04/08 07:24:40;;;;;;;;;;;;;;;;;;5117670;27;19915;-68
2023/04/08 07:27:06;;;;;;;;;;;;;;;;;;5136127;27;19960;-68
2023/04/08 07:29:32;;;;;;;;;;;;;;;;;;5134047;27;20006;-68
2023/04/08 07:31:58;;;;;;;;;;;;;;;;;;5133843;27;19907;-69
2023/04/08 07:34:24;;;;;;;;;;;;;;;;;;5132785;27;19914;-67
2023/04/08 07:36:50;;;;;;;;;;;;;;;;;;5132276;27;19908;-67
2023/04/08 07:39:16;;;;;;;;;;;;;;;;;;5133232;27;19907;-69
2023/04/08 07:41:42;;;;;;;;;;;;;;;;;;5133132;27;19912;-68
2023/04/08 07:44:08;;;;;;;;;;;;;;;;;;5114186;27;19964;-66
2023/04/08 07:46:34;;;;;;;;;;;;;;;;;;5133277;27;19907;-67
2023/04/08 07:49:00;;;;;;;;;;;;;;;;;;5133775;27;20363;-68
2023/04/08 07:51:26;;;;;;;;;;;;;;;;;;5134647;27;20002;-67
2023/04/08 07:53:52;;;;;;;;;;;;;;;;;;5134383;27;19918;-67
2023/04/08 07:56:18;;;;;;;;;;;;;;;;;;5133909;27;20378;-68
2023/04/08 07:58:44;;;;;;;;;;;;;;;;;;5133875;27;19914;-67
2023/04/08 08:01:11;;;;;;;;;;;;;;;;;;5134506;27;19950;-68
2023/04/08 08:03:38;;;;;;;;;;;;;;;;;;5134223;27;19927;-69
2023/04/08 08:06:04;;;;;;;;;;;;;;;;;;5134049;27;19966;-68
2023/04/08 08:08:32;;;;;;;;;;;;;;;;;;5116022;27;19908;-68
2023/04/08 08:10:58;;;;;;;;;;;;;;;;;;5135489;27;19915;-68
2023/04/08 08:13:24;;;;;;;;;;;;;;;;;;5135235;27;20367;-68
2023/04/08 08:15:50;;;;;;;;;;;;;;;;;;5135307;27;20367;-68
2023/04/08 08:18:16;;;;;;;;;;;;;;;;;;5134613;27;20287;-68
2023/04/08 08:20:42;;;;;;;;;;;;;;;;;;5134180;27;19915;-67
2023/04/08 08:23:08;;;;;;;;;;;;;;;;;;5116801;27;19908;-67
2023/04/08 08:25:34;;;;;;;;;;;;;;;;;;5128021;27;20002;-67
2023/04/08 08:28:00;;;;;;;;;;;;;;;;;;5121535;27;19988;-67
2023/04/08 08:30:26;;;;;;;;;;;;;;;;;;5114721;28;19911;-67
2023/04/08 08:32:52;;;;;;;;;;;;;;;;;;5096349;28;19916;-68
2023/04/08 08:35:18;;;;;;;;;;;;;;;;;;5096553;27;20333;-68
2023/04/08 08:37:44;;;;;;;;;;;;;;;;;;5115310;27;19912;-68
2023/04/08 08:40:10;;;;;;;;;;;;;;;;;;5114550;28;19915;-68
2023/04/08 08:42:36;;;;;;;;;;;;;;;;;;5114199;28;19943;-68
2023/04/08 08:45:02;;;;;;;;;;;;;;;;;;5114400;28;19963;-67
2023/04/08 08:47:28;;;;;;;;;;;;;;;;;;5114509;28;20357;-67
2023/04/08 08:49:54;;;;;;;;;;;;;;;;;;5119064;27;19918;-67
2023/04/08 08:52:20;;;;;;;;;;;;;;;;;;5134951;27;19914;-67
2023/04/08 08:54:46;;;;;;;;;;;;;;;;;;5134545;27;19911;-67
2023/04/08 08:58:12;;;;;;;;;;;;;;;;;;5091703;28;19917;-68
2023/04/08 09:00:38;;;;;;;;;;;;;;;;;;5091474;28;20007;-68
2023/04/08 09:03:04;;;;;;;;;;;;;;;;;;5090928;28;20395;-67
2023/04/08 09:05:30;;;;;;;;;;;;;;;;;;5091423;28;19909;-68
2023/04/08 09:12:13;;;;;;;;;;;;;;;;;;5091210;27;19923;-66
2023/04/08 09:15:17;;;;;;;;;;;;;;;;;;5091247;27;19935;-66
2023/04/08 09:18:22;;;;;;;;;;;;;;;;;;5091381;27;19922;-66
2023/04/08 09:20:48;;;;;;;;;;;;;;;;;;5091221;28;19913;-67
2023/04/08 09:23:14;;;;;;;;;;;;;;;;;;5090941;28;19992;-68
2023/04/08 09:25:40;;;;;;;;;;;;;;;;;;5091036;28;19930;-69
2023/04/08 09:28:53;;;;;;;;;;;;;;;;;;5091810;27;19923;-68
2023/04/08 09:33:44;;;;;;;;;;;;;;;;;;5091448;27;20281;-66
2023/04/08 09:39:21;;;;;;;;;;;;;;;;;;5111660;27;19916;-67
2023/04/08 09:44:19;;;;;;;;;;;;;;;;;;5091039;28;19912;-68
2023/04/08 09:46:45;;;;;;;;;;;;;;;;;;5091041;28;20007;-67
2023/04/08 09:51:40;;;;;;;;;;;;;;;;;;5087115;27;19923;-67
2023/04/08 09:54:06;;;;;;;;;;;;;;;;;;5086668;28;19912;-68
2023/04/08 09:56:32;;;;;;;;;;;;;;;;;;5087797;28;19987;-68
2023/04/08 09:58:58;;;;;;;;;;;;;;;;;;5086947;28;19916;-67
2023/04/08 10:03:42;;;;;;;;;;;;;;;;;;5088841;27;19923;-67
2023/04/08 10:06:09;;;;;;;;;;;;;;;;;;5089227;28;19996;-68
2023/04/08 10:08:35;;;;;;;;;;;;;;;;;;5089710;28;19915;-67
2023/04/08 10:11:01;;;;;;;;;;;;;;;;;;5091346;28;20400;-67
2023/04/08 10:13:31;;;;;;;;;;;;;;;;;;5090714;28;19909;-68
2023/04/08 10:15:56;;;;;;;;;;;;;;;;;;5090885;28;20007;-67
2023/04/08 10:21:18;;;;;;;;;;;;;;;;;;5090710;27;20406;-68
2023/04/08 10:23:44;;;;;;;;;;;;;;;;;;5091122;28;20003;-67
2023/04/08 10:26:10;;;;;;;;;;;;;;;;;;5090855;28;19908;-67
2023/04/08 10:28:36;;;;;;;;;;;;;;;;;;5091208;28;19909;-67
2023/04/08 10:31:02;;;;;;;;;;;;;;;;;;5091067;28;19915;-69
2023/04/08 10:33:28;;;;;;;;;;;;;;;;;;5090703;28;20034;-68
2023/04/08 10:35:54;;;;;;;;;;;;;;;;;;5091011;28;20283;-68
2023/04/08 10:38:20;;;;;;;;;;;;;;;;;;5091189;28;19909;-68
2023/04/08 10:40:46;;;;;;;;;;;;;;;;;;5090863;28;19995;-67
2023/04/08 10:43:12;;;;;;;;;;;;;;;;;;5090914;28;20360;-68
2023/04/08 10:47:31;;;;;;;;;;;;;;;;;;5091197;28;19916;-68
2023/04/08 10:51:49;;;;;;;;;;;;;;;;;;5174169;27;19918;-67
2023/04/08 10:58:15;;;;;;;;;;;;;;;;;;5075570;27;2208907;-67
2023/04/08 11:00:41;;;;;;;;;;;;;;;;;;5152834;27;20264;-68
2023/04/08 11:04:39;;;;;;;;;;;;;;;;;;5092038;28;19923;-66
2023/04/08 11:07:07;;;;;;;;;;;;;;;;;;5089960;28;20330;-67
2023/04/08 11:12:20;;;;;;;;;;;;;;;;;;5051146;28;19913;-67
2023/04/08 11:17:04;;;;;;;;;;;;;;;;;;5091047;28;20384;-68
2023/04/08 11:19:30;;;;;;;;;;;;;;;;;;5091312;28;20280;-66
2023/04/08 11:21:56;;;;;;;;;;;;;;;;;;5087102;28;19912;-65
2023/04/08 11:24:22;;;;;;;;;;;;;;;;;;5088872;28;19940;-67
2023/04/08 11:26:48;;;;;;;;;;;;;;;;;;5090837;28;19912;-67
2023/04/08 11:29:14;;;;;;;;;;;;;;;;;;5089622;28;19947;-67
2023/04/08 11:38:17;;;;;;;;;;;;;;;;;;5090939;27;19916;-67
2023/04/08 11:40:43;;;;;;;;;;;;;;;;;;5089809;28;20011;-67
2023/04/08 11:43:09;;;;;;;;;;;;;;;;;;5091135;28;19909;-67
2023/04/08 11:45:35;;;;;;;;;;;;;;;;;;5089264;28;20361;-68
2023/04/08 11:48:01;;;;;;;;;;;;;;;;;;5090780;28;19908;-67
2023/04/08 11:52:49;;;;;;;;;;;;;;;;;;5090853;27;19919;-68
2023/04/08 11:56:13;;;;;;;;;;;;;;;;;;5091289;27;19912;-67
2023/04/08 12:07:41;;;;;;;;;;;;;;;;;;5091868;27;20300;-67
2023/04/08 12:12:57;;;;;;;;;;;;;;;;;;5091098;28;19916;-66
2023/04/08 12:15:23;;;;;;;;;;;;;;;;;;5091315;28;20015;-68
2023/04/08 12:18:05;;;;;;;;;;;;;;;;;;5091609;27;19916;-68
2023/04/08 12:20:31;;;;;;;;;;;;;;;;;;5090881;28;20011;-67
2023/04/08 12:22:57;;;;;;;;;;;;;;;;;;5091085;28;19962;-67
2023/04/08 12:25:23;;;;;;;;;;;;;;;;;;5090955;28;20006;-68
2023/04/08 12:29:35;;;;;;;;;;;;;;;;;;5091664;27;19916;-68
2023/04/08 12:32:24;;;;;;;;;;;;;;;;;;5071696;28;19923;-67
2023/04/08 12:34:50;;;;;;;;;;;;;;;;;;5070666;28;19920;-67
2023/04/08 12:37:53;;;;;;;;;;;;;;;;;;5092040;27;19923;-66
2023/04/08 12:42:12;;;;;;;;;;;;;;;;;;5091584;27;19917;-66
2023/04/08 12:44:37;;;;;;;;;;;;;;;;;;5090020;28;20019;-67
2023/04/08 12:47:03;;;;;;;;;;;;;;;;;;5090887;28;19908;-68
2023/04/08 12:49:30;;;;;;;;;;;;;;;;;;5091529;28;19995;-68
2023/04/08 12:51:56;;;;;;;;;;;;;;;;;;5089827;28;19930;-67
2023/04/08 12:55:01;;;;;;;;;;;;;;;;;;5091067;27;19923;-67
2023/04/08 13:00:51;;;;;;;;;;;;;;;;;;5090982;27;19923;-67
2023/04/08 13:03:17;;;;;;;;;;;;;;;;;;5091362;28;20011;-67
2023/04/08 13:05:43;;;;;;;;;;;;;;;;;;5091206;28;19908;-67
2023/04/08 13:08:10;;;;;;;;;;;;;;;;;;5090813;28;19955;-67
2023/04/08 13:10:36;;;;;;;;;;;;;;;;;;5091132;28;19914;-67
2023/04/08 13:13:02;;;;;;;;;;;;;;;;;;5091037;28;19912;-68
2023/04/08 13:15:28;;;;;;;;;;;;;;;;;;5090865;28;19909;-67
2023/04/08 13:17:54;;;;;;;;;;;;;;;;;;5090822;28;19916;-67
2023/04/08 13:20:24;;;;;;;;;;;;;;;;;;5091134;28;19916;-67
2023/04/08 13:22:50;;;;;;;;;;;;;;;;;;5090674;28;20062;-68
2023/04/08 13:25:16;;;;;;;;;;;;;;;;;;5090986;28;19951;-68
2023/04/08 13:27:42;;;;;;;;;;;;;;;;;;5090876;28;19909;-69
2023/04/08 13:30:08;;;;;;;;;;;;;;;;;;5090686;28;19909;-68
2023/04/08 13:32:50;;;;;;;;;;;;;;;;;;5091790;27;20383;-66
2023/04/08 13:35:16;;;;;;;;;;;;;;;;;;5085189;28;20339;-67
2023/04/08 13:37:42;;;;;;;;;;;;;;;;;;5090214;28;19912;-67
2023/04/08 13:40:08;;;;;;;;;;;;;;;;;;5090879;28;19952;-67
2023/04/08 13:42:34;;;;;;;;;;;;;;;;;;5090436;28;19931;-67
2023/04/08 13:45:00;;;;;;;;;;;;;;;;;;5090409;28;19958;-66
2023/04/08 13:47:26;;;;;;;;;;;;;;;;;;5090636;28;19908;-66
2023/04/08 13:49:52;;;;;;;;;;;;;;;;;;5083357;28;19908;-66
2023/04/08 13:52:18;;;;;;;;;;;;;;;;;;5090560;28;19973;-66
2023/04/08 13:54:45;;;;;;;;;;;;;;;;;;5089603;28;20280;-66
2023/04/08 13:57:10;;;;;;;;;;;;;;;;;;5090297;28;20398;-66
2023/04/08 13:59:36;;;;;;;;;;;;;;;;;;5090810;28;19988;-67
2023/04/08 14:02:02;;;;;;;;;;;;;;;;;;5090774;28;19916;-67
2023/04/08 14:04:28;;;;;;;;;;;;;;;;;;5089188;28;20361;-66
2023/04/08 14:06:56;;;;;;;;;;;;;;;;;;5090600;28;19920;-66
2023/04/08 14:09:23;;;;;;;;;;;;;;;;;;5089384;28;19915;-67
2023/04/08 14:11:49;;;;;;;;;;;;;;;;;;5090213;28;19927;-67
2023/04/08 14:14:15;;;;;;;;;;;;;;;;;;5090627;28;20383;-67
2023/04/08 14:19:05;;;;;;;;;;;;;;;;;;5091095;28;19922;-67
2023/04/08 14:21:31;;;;;;;;;;;;;;;;;;5091555;28;20342;-67
2023/04/08 14:26:14;;;;;;;;;;;;;;;;;;5152609;27;19922;-67
2023/04/08 14:30:28;;;;;;;;;;;;;;;;;;5132355;27;20375;-66
2023/04/08 14:34:30;;;;;;;;;;;;;;;;;;5153144;27;20010;-67
2023/04/08 14:36:56;;;;;;;;;;;;;;;;;;5152972;27;19918;-65
2023/04/08 14:41:29;;;;;;;;;;;;;;;;;;5111222;27;19912;-66
2023/04/08 14:43:55;;;;;;;;;;;;;;;;;;5111636;28;20002;-66
2023/04/08 14:46:21;;;;;;;;;;;;;;;;;;5111280;28;19912;-68
2023/04/08 14:48:47;;;;;;;;;;;;;;;;;;5111636;28;19991;-65
2023/04/08 14:52:02;;;;;;;;;;;;;;;;;;5152871;27;19919;-67
2023/04/08 14:54:28;;;;;;;;;;;;;;;;;;5152389;27;19911;-67
2023/04/08 14:56:54;;;;;;;;;;;;;;;;;;5152918;27;19908;-67
2023/04/08 14:59:20;;;;;;;;;;;;;;;;;;5152932;27;20338;-67
2023/04/08 15:03:42;;;;;;;;;;;;;;;;;;5112010;27;19918;-66
2023/04/08 15:06:08;;;;;;;;;;;;;;;;;;5111737;28;19946;-66
2023/04/08 15:10:07;;;;;;;;;;;;;;;;;;5091368;28;19923;-66
2023/04/08 15:13:40;;;;;;;;;;;;;;;;;;5091550;27;19916;-66
2023/04/08 15:16:30;;;;;;;;;;;;;;;;;;5090768;27;19912;-67
2023/04/08 15:18:58;;;;;;;;;;;;;;;;;;5091313;28;20087;-68
2023/04/08 15:21:25;;;;;;;;;;;;;;;;;;5091296;28;20419;-67
2023/04/08 15:23:51;;;;;;;;;;;;;;;;;;5091452;28;19959;-67
2023/04/08 15:26:17;;;;;;;;;;;;;;;;;;5091079;28;20292;-67
2023/04/08 15:28:43;;;;;;;;;;;;;;;;;;5090682;28;20003;-67
2023/04/08 15:33:10;;;;;;;;;;;;;;;;;;5091768;27;19917;-68
2023/04/08 15:37:37;;;;;;;;;;;;;;;;;;5091063;27;19923;-66
2023/04/08 15:45:12;;;;;;;;;;;;;;;;;;5152957;27;19937;-66
2023/04/08 15:47:38;;;;;;;;;;;;;;;;;;5152891;27;19915;-66
2023/04/08 15:50:05;;;;;;;;;;;;;;;;;;5152523;27;19907;-68
2023/04/08 15:55:35;;;;;;;;;;;;;;;;;;5173724;27;19982;-67
2023/04/08 15:58:01;;;;;;;;;;;;;;;;;;5154609;27;19954;-67
2023/04/08 16:00:27;;;;;;;;;;;;;;;;;;5173675;27;20394;-66
2023/04/08 16:03:07;;;;;;;;;;;;;;;;;;5091471;27;20272;-66
2023/04/08 16:06:39;;;;;;;;;;;;;;;;;;5112062;27;19912;-67
2023/04/08 16:11:06;;;;;;;;;;;;;;;;;;5091548;28;19939;-67
2023/04/08 16:16:18;;;;;;;;;;;;;;;;;;5091540;27;20291;-66
2023/04/08 16:18:44;;;;;;;;;;;;;;;;;;5090866;28;19958;-67
2023/04/08 16:21:10;;;;;;;;;;;;;;;;;;5091195;28;20326;-67
2023/04/08 16:23:37;;;;;;;;;;;;;;;;;;5091213;28;19912;-67
2023/04/08 16:27:47;;;;;;;;;;;;;;;;;;5091491;27;19916;-68
2023/04/08 16:30:13;;;;;;;;;;;;;;;;;;5091705;28;20388;-67
2023/04/08 16:32:40;;;;;;;;;;;;;;;;;;5090995;28;19909;-67
2023/04/08 16:35:06;;;;;;;;;;;;;;;;;;5091194;28;19978;-68
2023/04/08 16:37:32;;;;;;;;;;;;;;;;;;5091204;28;20376;-67
2023/04/08 16:41:27;;;;;;;;;;;;;;;;;;5091539;27;19916;-66
2023/04/08 16:43:53;;;;;;;;;;;;;;;;;;5091606;28;20007;-67
2023/04/08 16:47:32;;;;;;;;;;;;;;;;;;5111383;27;20402;-67
2023/04/08 16:49:58;;;;;;;;;;;;;;;;;;5110379;28;19980;-66
2023/04/08 16:52:53;;;;;;;;;;;;;;;;;;5174093;27;19911;-66
2023/04/08 16:55:19;;;;;;;;;;;;;;;;;;5173801;27;19998;-66
2023/04/08 17:03:31;;;;;;;;;;;;;;;;;;5091605;27;19913;-67
2023/04/08 17:05:56;;;;;;;;;;;;;;;;;;5090107;28;19912;-68
2023/04/08 17:08:22;;;;;;;;;;;;;;;;;;5090956;28;20257;-68
2023/04/08 17:10:49;;;;;;;;;;;;;;;;;;5089974;28;19919;-67
2023/04/08 17:13:15;;;;;;;;;;;;;;;;;;5091245;28;20391;-67
2023/04/08 17:15:41;;;;;;;;;;;;;;;;;;5090721;28;19909;-68
2023/04/08 17:18:07;;;;;;;;;;;;;;;;;;5091152;28;19908;-67
2023/04/08 17:20:33;;;;;;;;;;;;;;;;;;5091050;28;19961;-67
2023/04/08 17:22:59;;;;;;;;;;;;;;;;;;5089332;28;19920;-66
2023/04/08 17:25:25;;;;;;;;;;;;;;;;;;5091033;28;20383;-67
2023/04/08 17:27:51;;;;;;;;;;;;;;;;;;5089626;28;20005;-66
2023/04/08 17:30:17;;;;;;;;;;;;;;;;;;5090425;28;19908;-67
2023/04/08 17:32:42;;;;;;;;;;;;;;;;;;5090996;28;19908;-67
2023/04/08 17:35:08;;;;;;;;;;;;;;;;;;5090512;28;19912;-67
2023/04/08 17:37:35;;;;;;;;;;;;;;;;;;5089446;28;20015;-67
2023/04/08 17:40:01;;;;;;;;;;;;;;;;;;5090778;28;20392;-67
2023/04/08 17:42:26;;;;;;;;;;;;;;;;;;5090288;28;19917;-67
2023/04/08 17:44:53;;;;;;;;;;;;;;;;;;5089301;28;19994;-66
2023/04/08 17:47:19;;;;;;;;;;;;;;;;;;5091221;28;19934;-67
2023/04/08 17:49:45;;;;;;;;;;;;;;;;;;5090057;28;19908;-66
2023/04/08 17:52:12;;;;;;;;;;;;;;;;;;5090750;28;19909;-67
2023/04/08 17:54:38;;;;;;;;;;;;;;;;;;5090360;28;19947;-67
2023/04/08 17:57:04;;;;;;;;;;;;;;;;;;5089964;28;19908;-68
2023/04/08 17:59:30;;;;;;;;;;;;;;;;;;5090225;28;19915;-68
2023/04/08 18:01:56;;;;;;;;;;;;;;;;;;5088692;28;19927;-67
2023/04/08 18:04:22;;;;;;;;;;;;;;;;;;5089653;28;19909;-67
2023/04/08 18:06:48;;;;;;;;;;;;;;;;;;5090058;28;19962;-67
2023/04/08 18:09:14;;;;;;;;;;;;;;;;;;5090317;28;19909;-68
2023/04/08 18:11:40;;;;;;;;;;;;;;;;;;5089659;28;19909;-67
2023/04/08 18:14:07;;;;;;;;;;;;;;;;;;5080224;28;19908;-66
2023/04/08 18:16:33;;;;;;;;;;;;;;;;;;5075163;28;20252;-66
2023/04/08 18:18:59;;;;;;;;;;;;;;;;;;5076055;28;19991;-66
2023/04/08 18:21:25;;;;;;;;;;;;;;;;;;5075102;28;19958;-66
2023/04/08 18:23:51;;;;;;;;;;;;;;;;;;5076586;28;19919;-67
2023/04/08 18:26:17;;;;;;;;;;;;;;;;;;5074626;28;19909;-67
2023/04/08 18:28:43;;;;;;;;;;;;;;;;;;5076341;28;20000;-68
2023/04/08 18:31:09;;;;;;;;;;;;;;;;;;5074970;28;20253;-67